createdAt,value
2022-12-24T00:01:18.527Z,4.93
2022-12-24T00:04:22.357Z,5.38
2022-12-24T00:07:25.232Z,4.63
2022-12-24T00:10:30.530Z,5.30
2022-12-24T00:13:33.700Z,5.00
2022-12-24T00:16:37.709Z,5.20
2022-12-24T00:19:41.798Z,5.05
2022-12-24T00:22:44.483Z,4.75
2022-12-24T00:25:50.292Z,4.78
2022-12-24T00:28:53.371Z,4.47
2022-12-24T00:31:57.235Z,4.80
2022-12-24T00:35:01.916Z,4.82
2022-12-24T00:38:04.909Z,5.05
2022-12-24T00:41:26.155Z,5.20
2022-12-24T00:44:29.203Z,4.40
2022-12-24T00:47:33.437Z,5.22
2022-12-24T00:50:37.448Z,5.40
2022-12-24T00:53:40.445Z,4.85
2022-12-24T00:56:45.714Z,5.18
2022-12-24T00:59:48.419Z,4.63
2022-12-24T01:02:52.423Z,4.90
2022-12-24T01:05:56.369Z,5.57
2022-12-24T01:08:59.124Z,5.40
2022-12-24T01:12:04.575Z,4.72
2022-12-24T01:15:08.597Z,5.13
2022-12-24T01:18:12.458Z,5.43
2022-12-24T01:21:16.343Z,5.32
2022-12-24T01:24:20.346Z,5.78
2022-12-24T01:27:25.796Z,5.22
2022-12-24T01:30:28.483Z,4.90
2022-12-24T01:33:32.691Z,5.13
2022-12-24T01:36:36.862Z,5.32
2022-12-24T01:39:39.825Z,5.78
2022-12-24T01:43:07.402Z,4.93
2022-12-24T01:46:18.199Z,5.17
2022-12-24T01:49:23.087Z,4.95
2022-12-24T01:52:30.947Z,5.18
2022-12-24T01:55:33.715Z,5.47
2022-12-24T01:58:40.202Z,5.40
2022-12-24T02:01:43.090Z,5.35
2022-12-24T02:04:54.930Z,5.57
2022-12-24T02:07:59.552Z,4.70
2022-12-24T02:11:02.298Z,5.20
2022-12-24T02:14:07.820Z,4.95
2022-12-24T02:17:18.499Z,5.07
2022-12-24T02:20:49.023Z,5.07
2022-12-24T02:24:25.082Z,5.00
2022-12-24T02:27:38.444Z,5.00
2022-12-24T02:30:47.820Z,5.38
2022-12-24T02:33:55.970Z,4.75
2022-12-24T02:37:05.467Z,5.10
2022-12-24T02:40:16.537Z,4.80
2022-12-24T02:46:49.005Z,4.50
2022-12-24T02:49:51.931Z,4.25
2022-12-24T02:52:56.063Z,4.95
2022-12-24T02:56:20.189Z,4.67
2022-12-24T02:59:52.773Z,5.03
2022-12-24T03:03:14.849Z,5.30
2022-12-24T03:06:28.594Z,5.40
2022-12-24T03:09:37.829Z,5.32
2022-12-24T03:12:45.187Z,5.83
2022-12-24T03:15:49.474Z,5.25
2022-12-24T03:18:57.279Z,6.57
2022-12-24T03:22:01.944Z,5.60
2022-12-24T03:25:06.585Z,5.35
2022-12-24T03:28:12.750Z,5.27
2022-12-24T03:31:16.210Z,5.75
2022-12-24T03:34:22.303Z,5.80
2022-12-24T03:37:26.667Z,5.25
2022-12-24T03:40:30.676Z,5.63
2022-12-24T03:43:35.051Z,5.17
2022-12-24T03:46:38.028Z,5.13
2022-12-24T03:49:43.359Z,6.07
2022-12-24T03:52:46.169Z,5.10
2022-12-24T03:55:50.309Z,5.18
2022-12-24T03:58:54.705Z,5.05
2022-12-24T04:01:57.506Z,5.20
2022-12-24T04:05:02.990Z,4.90
2022-12-24T04:08:05.864Z,5.05
2022-12-24T04:11:12.251Z,5.55
2022-12-24T04:14:16.212Z,5.35
2022-12-24T04:17:19.280Z,5.80
2022-12-24T04:20:24.518Z,5.00
2022-12-24T04:23:27.522Z,4.70
2022-12-24T04:26:31.468Z,5.03
2022-12-24T04:29:35.367Z,5.45
2022-12-24T04:32:38.113Z,5.25
2022-12-24T04:35:43.864Z,4.87
2022-12-24T04:38:47.183Z,4.70
2022-12-24T04:41:51.090Z,4.90
2022-12-24T04:44:54.963Z,4.93
2022-12-24T04:47:57.694Z,5.05
2022-12-24T04:51:05.339Z,4.73
2022-12-24T04:54:09.218Z,4.60
2022-12-24T04:57:16.771Z,5.00
2022-12-24T05:00:21.035Z,4.78
2022-12-24T05:03:39.026Z,5.45
2022-12-24T05:06:46.935Z,4.53
2022-12-24T05:09:54.268Z,4.70
2022-12-24T05:12:59.995Z,5.43
2022-12-24T05:16:08.154Z,4.75
2022-12-24T05:19:11.845Z,5.78
2022-12-24T05:22:34.722Z,5.10
2022-12-24T05:29:22.999Z,5.00
2022-12-24T05:32:27.604Z,4.70
2022-12-24T05:35:31.409Z,5.00
2022-12-24T05:38:44.380Z,5.33
2022-12-24T05:41:49.799Z,4.50
2022-12-24T05:48:27.593Z,5.30
2022-12-24T05:51:33.663Z,5.63
2022-12-24T05:54:39.029Z,5.40
2022-12-24T05:57:44.439Z,4.93
2022-12-24T06:00:51.262Z,5.80
2022-12-24T06:07:21.614Z,5.47
2022-12-24T06:10:26.909Z,4.50
2022-12-24T06:13:37.722Z,4.63
2022-12-24T06:16:42.538Z,4.50
2022-12-24T06:19:45.447Z,4.75
2022-12-24T06:22:49.338Z,4.80
2022-12-24T06:25:53.621Z,4.27
2022-12-24T06:28:57.459Z,4.57
2022-12-24T06:32:01.351Z,4.65
2022-12-24T06:35:04.388Z,5.10
2022-12-24T06:38:08.385Z,5.10
2022-12-24T06:41:12.514Z,5.60
2022-12-24T06:44:16.555Z,5.15
2022-12-24T06:47:19.318Z,4.90
2022-12-24T06:50:22.058Z,4.70
2022-12-24T06:53:25.955Z,5.22
2022-12-24T06:56:30.283Z,5.27
2022-12-24T06:59:34.234Z,4.93
2022-12-24T07:02:38.187Z,5.63
2022-12-24T07:05:42.078Z,4.90
2022-12-24T07:08:45.985Z,4.82
2022-12-24T07:11:50.077Z,4.63
2022-12-24T07:14:53.959Z,4.88
2022-12-24T07:17:57.820Z,5.35
2022-12-24T07:21:02.090Z,5.07
2022-12-24T07:24:12.764Z,5.57
2022-12-24T07:27:17.815Z,5.45
2022-12-24T07:30:22.623Z,5.18
2022-12-24T07:33:26.344Z,5.13
2022-12-24T07:36:30.043Z,5.30
2022-12-24T07:39:33.566Z,6.00
2022-12-24T07:42:43.989Z,5.55
2022-12-24T07:45:51.389Z,5.75
2022-12-24T07:48:56.700Z,5.60
2022-12-24T07:52:02.856Z,5.87
2022-12-24T07:55:06.735Z,5.43
2022-12-24T07:58:14.629Z,5.80
2022-12-24T08:01:18.074Z,6.05
2022-12-24T08:04:21.518Z,6.10
2022-12-24T08:07:25.361Z,5.50
2022-12-24T08:10:28.970Z,5.95
2022-12-24T08:13:34.804Z,5.20
2022-12-24T08:16:44.016Z,5.32
2022-12-24T08:19:48.782Z,5.32
2022-12-24T08:22:52.060Z,5.43
2022-12-24T08:25:56.523Z,5.32
2022-12-24T08:29:01.479Z,5.43
2022-12-24T08:32:05.138Z,5.50
2022-12-24T08:35:09.725Z,5.93
2022-12-24T08:38:17.225Z,5.63
2022-12-24T08:41:21.734Z,5.55
2022-12-24T08:44:31.781Z,5.75
2022-12-24T08:47:38.929Z,5.28
2022-12-24T08:50:47.044Z,5.53
2022-12-24T08:53:50.911Z,5.25
2022-12-24T08:56:55.600Z,5.78
2022-12-24T09:00:00.362Z,5.82
2022-12-24T09:03:05.360Z,5.37
2022-12-24T09:06:10.023Z,5.17
2022-12-24T09:09:13.107Z,5.50
2022-12-24T09:12:17.803Z,6.45
2022-12-24T09:15:22.302Z,6.40
2022-12-24T09:18:27.023Z,6.33
2022-12-24T09:21:29.761Z,6.87
2022-12-24T09:24:32.937Z,5.78
2022-12-24T09:27:35.848Z,6.63
2022-12-24T09:30:40.017Z,5.90
2022-12-24T09:33:45.223Z,6.20
2022-12-24T09:36:49.146Z,5.90
2022-12-24T09:39:51.938Z,5.78
2022-12-24T09:42:57.557Z,5.63
2022-12-24T09:46:10.775Z,5.43
2022-12-24T09:52:44.297Z,6.00
2022-12-24T09:55:50.279Z,5.65
2022-12-24T09:58:59.602Z,5.50
2022-12-24T10:02:04.046Z,5.97
2022-12-24T10:05:16.376Z,6.20
2022-12-24T10:08:29.052Z,6.23
2022-12-24T10:11:44.560Z,5.75
2022-12-24T10:15:01.541Z,6.20
2022-12-24T10:18:22.865Z,5.63
2022-12-24T10:21:35.866Z,6.30
2022-12-24T10:24:50.302Z,6.00
2022-12-24T10:27:57.205Z,5.80
2022-12-24T10:31:05.821Z,5.80
2022-12-24T10:34:20.988Z,5.68
2022-12-24T10:37:25.268Z,5.83
2022-12-24T10:40:46.022Z,5.80
2022-12-24T10:43:50.453Z,6.32
2022-12-24T10:46:54.437Z,7.07
2022-12-24T10:50:05.214Z,6.93
2022-12-24T10:53:17.436Z,7.43
2022-12-24T10:56:22.761Z,7.10
2022-12-24T10:59:28.810Z,7.30
2022-12-24T11:02:33.780Z,7.75
2022-12-24T11:05:39.510Z,7.53
2022-12-24T11:08:45.469Z,7.17
2022-12-24T11:11:49.554Z,7.83
2022-12-24T11:18:24.660Z,7.35
2022-12-24T11:21:31.712Z,7.15
2022-12-24T11:24:38.448Z,6.97
2022-12-24T11:27:44.579Z,6.47
2022-12-24T11:31:00.226Z,7.05
2022-12-24T11:34:20.018Z,5.88
2022-12-24T11:37:27.306Z,6.57
2022-12-24T11:40:36.035Z,6.10
2022-12-24T11:43:48.852Z,6.20
2022-12-24T11:46:56.682Z,6.80
2022-12-24T11:50:27.153Z,6.88
2022-12-24T11:53:38.029Z,6.50
2022-12-24T11:56:47.086Z,6.60
2022-12-24T11:59:52.276Z,7.17
2022-12-24T12:03:02.037Z,7.22
2022-12-24T12:06:14.151Z,7.15
2022-12-24T12:09:22.598Z,6.00
2022-12-24T12:12:29.799Z,6.63
2022-12-24T12:15:36.513Z,6.50
2022-12-24T12:18:43.729Z,6.15
2022-12-24T12:21:51.351Z,6.15
2022-12-24T12:24:58.562Z,6.13
2022-12-24T12:28:05.538Z,5.70
2022-12-24T12:31:16.981Z,5.60
2022-12-24T12:41:29.478Z,5.22
2022-12-24T12:44:52.484Z,5.83
2022-12-24T12:48:12.763Z,5.60
2022-12-24T12:51:26.389Z,5.97
2022-12-24T12:54:39.954Z,5.55
2022-12-24T12:57:52.933Z,5.13
2022-12-24T13:01:03.542Z,5.40
2022-12-24T13:04:42.832Z,5.00
2022-12-24T13:08:02.616Z,4.63
2022-12-24T13:11:27.635Z,5.10
2022-12-24T13:14:44.366Z,5.30
2022-12-24T13:18:04.065Z,5.50
2022-12-24T13:21:17.857Z,5.23
2022-12-24T13:24:27.188Z,4.55
2022-12-24T13:27:32.868Z,4.97
2022-12-24T13:30:41.165Z,4.80
2022-12-24T13:33:50.224Z,4.78
2022-12-24T13:37:21.128Z,5.43
2022-12-24T13:40:26.712Z,5.55
2022-12-24T13:44:17.326Z,5.67
2022-12-24T13:47:32.293Z,5.40
2022-12-24T13:50:40.051Z,5.68
2022-12-24T13:53:47.101Z,5.38
2022-12-24T13:56:51.675Z,6.07
2022-12-24T14:00:03.523Z,5.23
2022-12-24T14:03:20.148Z,5.70
2022-12-24T14:06:27.714Z,5.65
2022-12-24T14:09:32.809Z,5.63
2022-12-24T14:12:51.937Z,4.90
2022-12-24T14:16:06.165Z,4.73
2022-12-24T14:19:16.326Z,4.28
2022-12-24T14:22:31.143Z,4.57
2022-12-24T14:25:34.268Z,4.20
2022-12-24T14:28:44.388Z,5.00
2022-12-24T14:31:54.255Z,3.70
2022-12-24T14:35:09.020Z,3.40
2022-12-24T14:38:19.913Z,3.50
2022-12-24T14:41:37.019Z,3.67
2022-12-24T14:44:49.625Z,3.63
2022-12-24T14:48:05.245Z,4.00
2022-12-24T14:51:16.186Z,4.00
2022-12-24T14:54:36.724Z,4.63
2022-12-24T14:57:39.731Z,5.03
2022-12-24T15:00:45.829Z,5.53
2022-12-24T15:04:01.489Z,7.00
2022-12-24T15:07:08.787Z,6.93
2022-12-24T15:10:27.768Z,8.13
2022-12-24T15:13:36.944Z,8.02
2022-12-24T15:16:42.309Z,7.22
2022-12-24T15:19:52.842Z,7.60
2022-12-24T15:23:00.174Z,6.20
2022-12-24T15:26:24.030Z,6.28
2022-12-24T15:29:29.562Z,11.73
2022-12-24T15:32:37.038Z,12.63
2022-12-24T15:39:24.019Z,11.50
2022-12-24T15:42:37.182Z,13.57
2022-12-24T15:45:45.616Z,24.15
2022-12-24T15:48:51.665Z,25.27
2022-12-24T15:51:55.816Z,21.27
2022-12-24T15:54:58.687Z,14.27
2022-12-24T15:58:04.543Z,9.32
2022-12-24T16:01:28.047Z,7.57
2022-12-24T16:04:32.137Z,6.75
2022-12-24T16:08:04.675Z,5.93
2022-12-24T16:11:16.008Z,5.50
2022-12-24T16:14:21.428Z,4.43
2022-12-24T16:17:26.270Z,4.53
2022-12-24T16:23:56.484Z,4.80
2022-12-24T16:26:59.233Z,4.27
2022-12-24T16:30:04.691Z,7.28
2022-12-24T16:33:13.758Z,7.32
2022-12-24T16:36:17.661Z,6.53
2022-12-24T16:43:04.465Z,5.13
2022-12-24T16:46:10.129Z,5.03
2022-12-24T16:49:16.813Z,6.05
2022-12-24T16:52:23.281Z,5.55
2022-12-24T16:55:27.178Z,5.50
2022-12-24T16:58:30.492Z,4.40
2022-12-24T17:01:35.953Z,5.65
2022-12-24T17:04:39.518Z,5.72
2022-12-24T17:07:44.438Z,5.53
2022-12-24T17:10:52.322Z,8.82
2022-12-24T17:13:56.202Z,10.00
2022-12-24T17:17:00.328Z,8.68
2022-12-24T17:20:05.738Z,8.82
2022-12-24T17:23:09.590Z,8.25
2022-12-24T17:26:15.218Z,8.57
2022-12-24T17:29:19.272Z,7.63
2022-12-24T17:32:23.373Z,7.57
2022-12-24T17:35:26.081Z,7.55
2022-12-24T17:38:28.848Z,8.10
2022-12-24T17:41:32.730Z,9.35
2022-12-24T17:44:36.669Z,8.73
2022-12-24T17:47:41.290Z,7.30
2022-12-24T17:50:45.232Z,7.85
2022-12-24T17:53:48.179Z,7.00
2022-12-24T17:56:52.230Z,6.95
2022-12-24T17:59:56.196Z,7.20
2022-12-24T18:03:00.378Z,8.30
2022-12-24T18:06:06.125Z,15.63
2022-12-24T18:09:08.967Z,17.05
2022-12-24T18:12:12.950Z,13.70
2022-12-24T18:15:20.743Z,12.77
2022-12-24T18:18:24.809Z,11.77
2022-12-24T18:21:30.839Z,10.55
2022-12-24T18:24:33.583Z,9.15
2022-12-24T18:27:37.786Z,9.02
2022-12-24T18:30:41.687Z,9.33
2022-12-24T18:33:47.495Z,9.98
2022-12-24T18:36:55.287Z,8.43
2022-12-24T18:39:58.658Z,7.88
2022-12-24T18:43:02.682Z,7.15
2022-12-24T18:46:09.340Z,6.43
2022-12-24T18:49:13.502Z,5.75
2022-12-24T18:52:22.614Z,6.20
2022-12-24T18:55:25.641Z,5.85
2022-12-24T18:58:29.590Z,6.80
2022-12-24T19:01:35.713Z,6.87
2022-12-24T19:04:39.980Z,6.43
2022-12-24T19:07:44.024Z,7.43
2022-12-24T19:10:47.967Z,7.60
2022-12-24T19:13:53.116Z,6.88
2022-12-24T19:16:57.264Z,5.67
2022-12-24T19:20:01.468Z,5.53
2022-12-24T19:23:05.464Z,5.60
2022-12-24T19:26:08.422Z,5.90
2022-12-24T19:29:12.429Z,6.77
2022-12-24T19:32:16.444Z,5.88
2022-12-24T19:35:20.538Z,5.22
2022-12-24T19:38:24.570Z,4.78
2022-12-24T19:41:29.218Z,5.00
2022-12-24T19:44:33.366Z,4.70
2022-12-24T19:47:36.095Z,4.70
2022-12-24T19:50:41.406Z,5.72
2022-12-24T19:53:45.543Z,5.80
2022-12-24T19:56:48.263Z,6.37
2022-12-24T19:59:52.235Z,5.83
2022-12-24T20:02:56.336Z,7.05
2022-12-24T20:06:00.593Z,7.80
2022-12-24T20:09:07.131Z,6.05
2022-12-24T20:12:09.979Z,5.60
2022-12-24T20:15:14.075Z,5.50
2022-12-24T20:18:18.080Z,5.28
2022-12-24T20:21:22.540Z,5.65
2022-12-24T20:24:25.488Z,6.45
2022-12-24T20:27:28.384Z,6.00
2022-12-24T20:30:33.260Z,5.23
2022-12-24T20:33:37.586Z,5.10
2022-12-24T20:36:41.796Z,5.60
2022-12-24T20:39:45.779Z,4.45
2022-12-24T20:42:49.742Z,4.37
2022-12-24T20:45:52.944Z,4.07
2022-12-24T20:48:58.074Z,4.30
2022-12-24T20:52:02.155Z,4.57
2022-12-24T20:55:06.582Z,4.70
2022-12-24T20:58:12.180Z,4.13
2022-12-24T21:01:18.597Z,4.17
2022-12-24T21:04:23.749Z,3.85
2022-12-24T21:07:27.886Z,3.72
2022-12-24T21:10:34.433Z,3.42
2022-12-24T21:13:37.646Z,3.80
2022-12-24T21:16:41.469Z,3.37
2022-12-24T21:19:45.596Z,3.50
2022-12-24T21:22:49.670Z,3.45
2022-12-24T21:26:02.107Z,3.15
2022-12-24T21:29:07.987Z,2.80
2022-12-24T21:32:10.675Z,3.50
2022-12-24T21:35:14.794Z,2.90
2022-12-24T21:38:18.857Z,3.45
2022-12-24T21:41:25.187Z,2.78
2022-12-24T21:44:29.186Z,3.10
2022-12-24T21:47:32.016Z,2.63
2022-12-24T21:50:53.716Z,2.97
2022-12-24T21:54:18.110Z,3.28
2022-12-24T21:57:39.509Z,3.35
2022-12-24T22:04:04.091Z,2.90
2022-12-24T22:07:25.873Z,2.72
2022-12-24T22:10:47.399Z,2.90
2022-12-24T22:13:51.372Z,3.10
2022-12-24T22:16:55.360Z,3.00
2022-12-24T22:19:58.106Z,3.03
2022-12-24T22:23:02.088Z,3.05
2022-12-24T22:26:14.418Z,2.97
2022-12-24T22:29:19.149Z,3.08
2022-12-24T22:32:24.609Z,2.87
2022-12-24T22:35:27.889Z,3.00
2022-12-24T22:38:32.601Z,3.17
2022-12-24T22:41:37.158Z,3.47
2022-12-24T22:44:41.798Z,3.03
2022-12-24T22:47:45.989Z,3.83
2022-12-24T22:50:49.215Z,3.30
2022-12-24T22:53:53.821Z,3.30
2022-12-24T22:56:58.553Z,3.92
2022-12-24T23:00:03.087Z,3.58
2022-12-24T23:03:08.519Z,3.60
2022-12-24T23:06:12.675Z,4.17
2022-12-24T23:09:18.262Z,3.58
2022-12-24T23:12:44.159Z,3.40
2022-12-24T23:15:49.571Z,3.75
2022-12-24T23:18:54.712Z,4.07
2022-12-24T23:21:58.103Z,3.83
2022-12-24T23:25:02.489Z,4.15
2022-12-24T23:28:07.240Z,3.85
2022-12-24T23:31:11.780Z,4.13
2022-12-24T23:34:16.019Z,3.40
2022-12-24T23:37:19.172Z,3.87
2022-12-24T23:40:24.252Z,3.90
2022-12-24T23:43:29.161Z,4.60
2022-12-24T23:46:33.805Z,4.07
2022-12-24T23:49:38.271Z,3.80
2022-12-24T23:52:41.512Z,3.55
2022-12-24T23:55:46.493Z,3.63
2022-12-24T23:58:52.134Z,3.78
